Grand Junction, Iowa
Current Conditions -  °F | °C
As of 10:35 PM on Monday 20 Oct 2014 (Local Time) from KPRO Reporting Station
Clear Clear  
Wind Chill: 43°   Ceiling: Unl
Heat Index: 45°   Visibility: 10mi
Dew Point: 40°   Wind: 5mph
Humidity: 82%   Direction: 290°WNW
Pressure: 30.05"   Gusts: NA
Location:  42.03°N, 94.24°W
Report Text: KPRO 210335Z AUTO 29004KT 10SM CLR 07/05 A3005 RMK AO2 T00740045
Loading
Personal Weather Stations






























Interactive Weather Map
Tropical Storm Tracking
New forecast layout! Learn more

10-Day Weather Forecast

Advertisements
Track Severe Weather on mobile